createdAt,value
2023-01-19T00:01:56.762Z,70.10
2023-01-19T00:04:26.666Z,70.50
2023-01-19T00:06:57.267Z,70.50
2023-01-19T00:09:25.032Z,70.60
2023-01-19T00:11:52.527Z,70.60
2023-01-19T00:14:20.070Z,70.90
2023-01-19T00:16:47.229Z,70.70
2023-01-19T00:19:15.183Z,70.30
2023-01-19T00:21:43.869Z,70.10
2023-01-19T00:24:15.069Z,69.50
2023-01-19T00:26:43.366Z,69.80
2023-01-19T00:29:16.028Z,70.30
2023-01-19T00:31:43.541Z,70.30
2023-01-19T00:34:11.549Z,70.20
2023-01-19T00:36:38.921Z,70.20
2023-01-19T00:39:05.877Z,70.10
2023-01-19T00:41:58.959Z,70.30
2023-01-19T00:44:25.944Z,70.00
2023-01-19T00:46:53.210Z,70.50
2023-01-19T00:49:20.605Z,70.70
2023-01-19T00:51:50.800Z,71.00
2023-01-19T00:54:17.891Z,71.30
2023-01-19T00:56:46.112Z,71.50
2023-01-19T00:59:13.555Z,71.40
2023-01-19T01:01:45.789Z,71.30
2023-01-19T01:04:17.794Z,71.40
2023-01-19T01:06:44.910Z,71.50
2023-01-19T01:09:14.982Z,71.60
2023-01-19T01:11:44.906Z,72.00
2023-01-19T01:14:12.100Z,72.20
2023-01-19T01:16:39.655Z,72.30
2023-01-19T01:19:08.057Z,71.80
2023-01-19T01:21:36.049Z,71.20
2023-01-19T01:24:03.665Z,71.30
2023-01-19T01:26:30.738Z,71.50
2023-01-19T01:28:58.078Z,71.40
2023-01-19T01:31:25.295Z,71.40
2023-01-19T01:33:52.834Z,72.10
2023-01-19T01:36:21.049Z,72.70
2023-01-19T01:38:48.108Z,73.30
2023-01-19T01:41:15.175Z,73.40
2023-01-19T01:43:44.965Z,73.00
2023-01-19T01:46:12.293Z,73.00
2023-01-19T01:48:40.170Z,73.80
2023-01-19T01:51:27.098Z,74.10
2023-01-19T01:54:10.095Z,74.50
2023-01-19T01:56:44.528Z,74.80
2023-01-19T01:59:13.151Z,75.10
2023-01-19T02:01:59.866Z,74.60
2023-01-19T02:04:29.517Z,74.10
2023-01-19T02:07:15.486Z,73.40
2023-01-19T02:10:01.125Z,73.00
2023-01-19T02:12:47.036Z,72.50
2023-01-19T02:15:17.018Z,72.20
2023-01-19T02:17:44.219Z,72.00
2023-01-19T02:20:11.475Z,72.50
2023-01-19T02:22:51.095Z,72.90
2023-01-19T02:25:18.509Z,73.50
2023-01-19T02:27:45.770Z,73.70
2023-01-19T02:30:13.119Z,73.80
2023-01-19T02:32:41.275Z,73.80
2023-01-19T02:35:08.579Z,73.50
2023-01-19T02:37:38.083Z,73.00
2023-01-19T02:40:05.711Z,73.10
2023-01-19T02:42:34.382Z,72.80
2023-01-19T02:45:08.029Z,73.10
2023-01-19T02:47:39.131Z,73.10
2023-01-19T02:50:06.474Z,72.50
2023-01-19T02:52:36.665Z,72.60
2023-01-19T02:55:18.433Z,72.30
2023-01-19T02:57:48.425Z,72.10
2023-01-19T03:00:27.370Z,72.50
2023-01-19T03:02:54.452Z,73.00
2023-01-19T03:05:26.163Z,74.10
2023-01-19T03:08:11.887Z,74.40
2023-01-19T03:10:38.916Z,74.80
2023-01-19T03:13:24.006Z,75.10
2023-01-19T03:15:52.979Z,75.30
2023-01-19T03:18:20.968Z,75.30
2023-01-19T03:20:47.967Z,74.80
2023-01-19T03:23:15.123Z,74.80
2023-01-19T03:25:43.306Z,75.40
2023-01-19T03:28:13.508Z,74.90
2023-01-19T03:30:41.592Z,75.80
2023-01-19T03:33:10.542Z,74.60
2023-01-19T03:35:39.293Z,74.50
2023-01-19T03:38:06.998Z,74.40
2023-01-19T03:40:33.994Z,73.70
2023-01-19T03:43:01.545Z,74.60
2023-01-19T03:45:28.732Z,74.10
2023-01-19T03:47:55.947Z,74.10
2023-01-19T03:50:27.585Z,74.30
2023-01-19T03:53:20.977Z,74.10
2023-01-19T03:55:48.474Z,74.20
2023-01-19T03:58:15.766Z,74.40
2023-01-19T04:00:42.778Z,74.50
2023-01-19T04:03:16.742Z,75.20
2023-01-19T04:05:43.860Z,75.70
2023-01-19T04:08:11.316Z,75.30
2023-01-19T04:10:38.457Z,76.20
2023-01-19T04:13:05.465Z,77.50
2023-01-19T04:15:32.576Z,78.60
2023-01-19T04:17:59.996Z,78.90
2023-01-19T04:20:28.330Z,78.90
2023-01-19T04:22:56.340Z,78.60
2023-01-19T04:25:23.390Z,78.20
2023-01-19T04:27:51.978Z,78.70
2023-01-19T04:30:19.397Z,79.00
2023-01-19T04:32:46.494Z,78.60
2023-01-19T04:35:13.541Z,78.70
2023-01-19T04:37:40.675Z,78.70
2023-01-19T04:40:09.573Z,78.50
2023-01-19T04:42:36.597Z,78.60
2023-01-19T04:45:04.133Z,78.50
2023-01-19T04:47:31.192Z,78.20
2023-01-19T04:49:58.240Z,77.40
2023-01-19T04:52:25.831Z,77.40
2023-01-19T04:54:53.157Z,76.90
2023-01-19T04:57:20.189Z,76.30
2023-01-19T04:59:47.597Z,75.80
2023-01-19T05:02:14.782Z,76.50
2023-01-19T05:04:42.203Z,77.30
2023-01-19T05:07:09.243Z,77.90
2023-01-19T05:09:36.324Z,77.90
2023-01-19T05:12:03.627Z,77.70
2023-01-19T05:14:33.690Z,77.80
2023-01-19T05:17:03.032Z,77.80
2023-01-19T05:19:30.421Z,78.50
2023-01-19T05:21:57.691Z,78.40
2023-01-19T05:24:24.775Z,79.10
2023-01-19T05:26:53.912Z,79.60
2023-01-19T05:29:22.821Z,80.00
2023-01-19T05:31:49.910Z,79.40
2023-01-19T05:34:17.545Z,79.80
2023-01-19T05:36:44.703Z,79.80
2023-01-19T05:39:12.215Z,79.30
2023-01-19T05:41:39.496Z,79.20
2023-01-19T06:10:35.651Z,75.80
2023-01-19T06:13:04.442Z,76.20
2023-01-19T06:15:31.801Z,76.80
2023-01-19T06:18:01.818Z,77.90
2023-01-19T06:20:28.957Z,78.90
2023-01-19T06:22:59.931Z,79.60
2023-01-19T06:25:27.560Z,80.20
2023-01-19T06:27:55.256Z,80.30
2023-01-19T06:53:10.784Z,77.50
2023-01-19T07:06:38.939Z,75.50
2023-01-19T07:09:10.540Z,74.70
2023-01-19T07:11:37.840Z,74.10
2023-01-19T07:14:04.926Z,72.40
2023-01-19T07:16:32.127Z,70.80
2023-01-19T07:19:02.429Z,69.30
2023-01-19T07:21:29.877Z,69.70
2023-01-19T07:24:06.636Z,70.50
2023-01-19T07:26:34.370Z,71.20
2023-01-19T07:29:01.480Z,71.80
2023-01-19T07:31:30.156Z,72.30
2023-01-19T07:33:59.537Z,72.60
2023-01-19T07:36:28.448Z,72.80
2023-01-19T07:38:57.001Z,72.60
2023-01-19T07:41:24.172Z,72.70
2023-01-19T07:43:51.654Z,72.90
2023-01-19T07:46:18.814Z,72.80
2023-01-19T07:48:47.562Z,72.60
2023-01-19T07:51:19.278Z,72.40
2023-01-19T07:53:46.552Z,72.30
2023-01-19T07:56:13.545Z,72.20
2023-01-19T07:58:40.706Z,72.30
2023-01-19T08:01:28.509Z,73.40
2023-01-19T08:03:55.906Z,74.50
2023-01-19T08:06:24.358Z,74.70
2023-01-19T08:08:51.420Z,74.50
2023-01-19T08:11:29.646Z,74.10
2023-01-19T08:13:58.050Z,73.70
2023-01-19T08:16:25.390Z,73.50
2023-01-19T08:18:52.468Z,73.60
2023-01-19T08:21:19.704Z,74.40
2023-01-19T08:23:54.925Z,75.20
2023-01-19T08:26:30.525Z,75.80
2023-01-19T08:29:06.173Z,76.20
2023-01-19T08:36:54.241Z,79.40
2023-01-19T08:39:23.984Z,80.00
2023-01-19T08:41:51.671Z,80.60
2023-01-19T08:44:21.590Z,80.20
2023-01-19T08:46:49.762Z,80.50
2023-01-19T08:49:32.357Z,77.50
2023-01-19T08:51:59.922Z,73.00
2023-01-19T08:54:29.278Z,63.10
2023-01-19T08:56:58.820Z,55.60
2023-01-19T09:02:03.620Z,45.60
2023-01-19T09:04:34.680Z,41.60
2023-01-19T09:07:08.086Z,39.90
2023-01-19T09:19:21.829Z,45.20
2023-01-19T09:21:52.805Z,48.60
2023-01-19T09:24:19.827Z,50.90
2023-01-19T09:26:46.890Z,53.00
2023-01-19T09:29:15.656Z,55.00
2023-01-19T09:46:28.115Z,63.30
2023-01-19T09:48:56.991Z,64.80
2023-01-19T09:54:17.158Z,63.60
2023-01-19T10:47:52.944Z,66.30
2023-01-19T10:50:47.611Z,65.30
2023-01-19T11:16:04.900Z,61.80
2023-01-19T11:18:39.525Z,60.50
2023-01-19T11:21:16.406Z,60.60
2023-01-19T11:23:51.401Z,59.50
2023-01-19T11:26:45.921Z,59.60
2023-01-19T11:29:17.133Z,60.00
2023-01-19T11:31:44.492Z,60.90
2023-01-19T11:34:35.449Z,61.10
2023-01-19T11:37:03.404Z,60.60
2023-01-19T11:39:32.386Z,59.90
2023-01-19T11:42:00.861Z,60.10
2023-01-19T11:44:35.926Z,60.20
2023-01-19T11:47:03.622Z,59.00
2023-01-19T11:49:44.795Z,58.00
2023-01-19T11:52:30.092Z,58.90
2023-01-19T11:54:58.477Z,59.00
2023-01-19T11:57:46.717Z,59.60
2023-01-19T12:00:26.944Z,60.30
2023-01-19T12:02:55.533Z,61.40
2023-01-19T12:05:31.875Z,61.90
2023-01-19T12:07:59.290Z,61.00
2023-01-19T12:10:30.324Z,60.70
2023-01-19T12:12:58.333Z,60.90
2023-01-19T12:15:36.528Z,61.20
2023-01-19T12:18:04.019Z,61.10
2023-01-19T12:20:59.008Z,61.00
2023-01-19T12:23:31.776Z,61.30
2023-01-19T12:26:17.232Z,61.40
2023-01-19T12:28:47.817Z,60.90
2023-01-19T12:31:18.666Z,61.40
2023-01-19T12:33:46.767Z,61.40
2023-01-19T12:36:16.769Z,60.80
2023-01-19T12:38:48.193Z,61.20
2023-01-19T12:41:18.116Z,60.60
2023-01-19T12:43:45.220Z,59.80
2023-01-19T12:46:24.741Z,60.50
2023-01-19T12:48:51.935Z,61.90
2023-01-19T12:51:23.842Z,62.20
2023-01-19T12:53:51.743Z,62.70
2023-01-19T12:56:19.629Z,62.40
2023-01-19T12:58:50.290Z,61.50
2023-01-19T13:01:19.332Z,61.00
2023-01-19T13:04:10.045Z,61.00
2023-01-19T13:06:49.739Z,59.90
2023-01-19T13:09:29.503Z,60.80
2023-01-19T13:12:14.956Z,60.90
2023-01-19T13:14:42.441Z,60.10
2023-01-19T13:17:23.383Z,60.40
2023-01-19T13:19:52.600Z,59.00
2023-01-19T13:22:38.439Z,59.80
2023-01-19T13:25:12.617Z,60.50
2023-01-19T13:30:51.885Z,59.70
2023-01-19T13:33:23.921Z,59.50
2023-01-19T13:35:51.994Z,60.00
2023-01-19T13:38:19.157Z,59.80
2023-01-19T13:40:46.333Z,59.70
2023-01-19T13:43:24.067Z,58.90
2023-01-19T13:45:59.939Z,58.90
2023-01-19T13:48:30.029Z,59.40
2023-01-19T13:50:57.741Z,59.40
2023-01-19T13:53:27.155Z,59.50
2023-01-19T14:02:41.402Z,59.80
2023-01-19T14:05:17.389Z,59.40
2023-01-19T14:07:45.172Z,59.70
2023-01-19T14:10:13.016Z,59.90
2023-01-19T14:12:51.149Z,59.80
2023-01-19T14:15:25.196Z,59.50
2023-01-19T14:18:08.278Z,59.50
2023-01-19T14:20:37.293Z,58.90
2023-01-19T14:23:04.729Z,59.10
2023-01-19T14:25:35.099Z,59.40
2023-01-19T14:28:20.677Z,59.70
2023-01-19T14:30:57.225Z,60.30
2023-01-19T14:33:33.196Z,60.10
2023-01-19T14:36:10.201Z,60.30
2023-01-19T14:38:37.294Z,59.20
2023-01-19T14:41:04.640Z,59.30
2023-01-19T14:43:31.591Z,59.20
2023-01-19T14:45:58.685Z,58.40
2023-01-19T14:48:29.413Z,58.60
2023-01-19T14:51:03.878Z,59.20
2023-01-19T14:53:37.282Z,59.60
2023-01-19T14:56:04.997Z,59.70
2023-01-19T14:58:33.622Z,60.20
2023-01-19T15:01:00.784Z,59.70
2023-01-19T15:03:43.494Z,59.50
2023-01-19T15:06:16.348Z,59.50
2023-01-19T15:08:43.531Z,60.00
2023-01-19T15:11:14.018Z,59.60
2023-01-19T15:13:41.023Z,60.10
2023-01-19T15:16:09.185Z,60.40
2023-01-19T15:18:36.668Z,60.60
2023-01-19T15:21:03.949Z,60.00
2023-01-19T15:23:31.322Z,59.80
2023-01-19T15:26:02.336Z,60.20
2023-01-19T15:28:29.438Z,60.10
2023-01-19T15:30:57.846Z,60.50
2023-01-19T15:33:25.488Z,60.40
2023-01-19T15:35:53.695Z,60.20
2023-01-19T15:38:20.708Z,60.20
2023-01-19T15:40:51.192Z,59.30
2023-01-19T15:43:18.773Z,59.20
2023-01-19T15:45:54.007Z,59.30
2023-01-19T15:48:22.627Z,59.50
2023-01-19T15:50:49.643Z,59.60
2023-01-19T15:53:17.952Z,59.10
2023-01-19T15:55:49.048Z,59.00
2023-01-19T15:58:16.011Z,59.70
2023-01-19T16:00:43.348Z,59.60
2023-01-19T16:03:10.872Z,59.80
2023-01-19T16:05:43.620Z,59.90
2023-01-19T16:08:11.573Z,59.40
2023-01-19T16:10:38.672Z,59.40
2023-01-19T16:13:07.042Z,59.40
2023-01-19T16:15:37.006Z,59.00
2023-01-19T16:18:04.850Z,59.00
2023-01-19T16:20:31.943Z,58.80
2023-01-19T16:23:13.802Z,58.30
2023-01-19T16:25:41.511Z,58.30
2023-01-19T16:28:08.595Z,57.90
2023-01-19T16:30:35.681Z,57.60
2023-01-19T16:33:02.639Z,57.70
2023-01-19T16:35:29.763Z,58.00
2023-01-19T16:37:56.763Z,58.30
2023-01-19T16:40:24.116Z,58.10
2023-01-19T16:42:51.298Z,57.50
2023-01-19T16:45:18.419Z,58.00
2023-01-19T16:47:50.856Z,57.90
2023-01-19T16:50:18.280Z,58.00
2023-01-19T16:52:45.287Z,57.80
2023-01-19T16:55:12.363Z,58.10
2023-01-19T16:57:39.309Z,58.60
2023-01-19T17:00:06.825Z,58.80
2023-01-19T17:02:33.777Z,59.10
2023-01-19T17:05:00.905Z,59.60
2023-01-19T17:07:28.113Z,59.60
2023-01-19T17:09:55.101Z,59.40
2023-01-19T17:12:22.353Z,59.70
2023-01-19T17:14:49.300Z,60.00
2023-01-19T17:17:16.674Z,60.10
2023-01-19T17:19:45.301Z,59.70
2023-01-19T17:22:15.983Z,59.70
2023-01-19T17:24:43.841Z,59.70
2023-01-19T17:27:10.935Z,59.70
2023-01-19T17:29:38.233Z,60.00
2023-01-19T17:32:05.465Z,60.10
2023-01-19T17:34:32.818Z,59.70
2023-01-19T17:37:03.694Z,60.00
2023-01-19T17:39:30.850Z,59.90
2023-01-19T17:41:57.972Z,59.80
2023-01-19T17:44:25.210Z,59.50
2023-01-19T17:46:52.261Z,58.90
2023-01-19T17:49:19.343Z,58.90
2023-01-19T17:51:46.535Z,59.20
2023-01-19T17:54:14.562Z,59.30
2023-01-19T17:56:45.403Z,59.60
2023-01-19T17:59:12.367Z,59.60
2023-01-19T18:01:40.615Z,59.60
2023-01-19T18:04:08.006Z,59.50
2023-01-19T18:06:36.127Z,59.30
2023-01-19T18:09:03.321Z,59.20
2023-01-19T18:11:30.424Z,59.10
2023-01-19T18:13:58.640Z,59.00
2023-01-19T18:16:26.249Z,59.00
2023-01-19T18:19:06.835Z,59.00
2023-01-19T18:21:34.632Z,59.30
2023-01-19T18:24:10.700Z,59.10
2023-01-19T18:26:39.144Z,59.20
2023-01-19T18:29:06.575Z,59.30
2023-01-19T18:31:33.729Z,59.40
2023-01-19T18:34:00.877Z,59.90
2023-01-19T18:36:29.090Z,59.80
2023-01-19T18:38:56.287Z,59.90
2023-01-19T18:41:23.428Z,60.10
2023-01-19T18:43:50.549Z,60.20
2023-01-19T18:46:17.547Z,60.30
2023-01-19T18:48:44.718Z,60.30
2023-01-19T18:51:15.497Z,60.50
2023-01-19T18:53:42.854Z,60.70
2023-01-19T18:56:12.512Z,61.00
2023-01-19T18:58:39.530Z,61.20
2023-01-19T19:01:16.708Z,62.30
2023-01-19T19:03:43.688Z,62.90
2023-01-19T19:06:10.678Z,62.60
2023-01-19T19:08:37.679Z,63.10
2023-01-19T19:11:08.327Z,63.40
2023-01-19T19:13:35.321Z,63.20
2023-01-19T19:16:06.459Z,62.90
2023-01-19T19:18:34.392Z,63.20
2023-01-19T19:21:08.160Z,63.10
2023-01-19T19:23:37.020Z,63.20
2023-01-19T19:26:04.674Z,62.80
2023-01-19T19:28:31.770Z,62.90
2023-01-19T19:31:04.488Z,63.00
2023-01-19T19:33:35.127Z,63.30
2023-01-19T19:36:02.189Z,63.00
2023-01-19T19:38:30.608Z,63.00
2023-01-19T19:40:57.764Z,63.90
2023-01-19T19:43:24.923Z,64.70
2023-01-19T19:46:01.267Z,65.10
2023-01-19T19:48:30.052Z,65.30
2023-01-19T19:51:01.976Z,65.20
2023-01-19T19:53:37.435Z,64.90
2023-01-19T19:56:04.890Z,65.10
2023-01-19T19:58:31.968Z,65.20
2023-01-19T20:00:59.067Z,64.90
2023-01-19T20:03:26.538Z,64.60
2023-01-19T20:05:53.597Z,64.30
2023-01-19T20:08:20.617Z,64.30
2023-01-19T20:10:47.640Z,64.00
2023-01-19T20:13:18.018Z,63.80
2023-01-19T20:15:45.211Z,63.20
2023-01-19T20:18:12.312Z,62.80
2023-01-19T20:20:39.326Z,63.00
2023-01-19T20:23:08.396Z,63.00
2023-01-19T20:25:37.114Z,63.10
2023-01-19T20:28:04.078Z,63.50
2023-01-19T20:30:31.465Z,63.60
2023-01-19T20:32:58.555Z,63.10
2023-01-19T20:35:26.365Z,62.80
2023-01-19T20:37:53.421Z,62.80
2023-01-19T20:40:23.428Z,63.10
2023-01-19T20:42:50.921Z,63.20
2023-01-19T20:45:19.138Z,63.00
2023-01-19T20:47:49.483Z,63.30
2023-01-19T20:50:16.869Z,63.30
2023-01-19T20:52:45.303Z,63.20
2023-01-19T20:55:14.395Z,62.90
2023-01-19T20:57:41.890Z,62.80
2023-01-19T21:00:10.698Z,62.50
2023-01-19T21:02:38.261Z,62.60
2023-01-19T21:05:05.847Z,62.70
2023-01-19T21:07:33.024Z,62.90
2023-01-19T21:10:00.069Z,63.00
2023-01-19T21:12:27.187Z,62.60
2023-01-19T21:14:54.300Z,63.00
2023-01-19T21:17:21.563Z,63.20
2023-01-19T21:19:48.929Z,63.90
2023-01-19T21:22:16.029Z,63.60
2023-01-19T21:24:44.544Z,63.50
2023-01-19T21:27:11.884Z,63.30
2023-01-19T21:29:38.951Z,63.50
2023-01-19T21:32:06.127Z,63.30
2023-01-19T21:34:33.268Z,63.30
2023-01-19T21:37:00.384Z,63.20
2023-01-19T21:39:27.552Z,62.50
2023-01-19T21:41:54.928Z,62.00
2023-01-19T21:44:23.044Z,61.70
2023-01-19T21:46:50.886Z,62.00
2023-01-19T21:49:19.139Z,62.10
2023-01-19T21:51:47.957Z,62.60
2023-01-19T21:54:15.725Z,62.90
2023-01-19T21:56:45.741Z,63.10
2023-01-19T21:59:13.420Z,63.40
2023-01-19T22:01:40.785Z,63.30
2023-01-19T22:04:15.478Z,63.20
2023-01-19T22:06:42.588Z,63.40
2023-01-19T22:09:09.820Z,63.20
2023-01-19T22:11:36.788Z,62.30
2023-01-19T22:14:04.371Z,62.40
2023-01-19T22:16:31.563Z,62.40
2023-01-19T22:19:01.506Z,62.80
2023-01-19T22:21:32.556Z,63.20
2023-01-19T22:24:00.244Z,62.70
2023-01-19T22:26:27.964Z,63.30
2023-01-19T22:28:59.398Z,63.80
2023-01-19T22:31:27.427Z,63.70
2023-01-19T22:33:54.723Z,63.90
2023-01-19T22:36:22.884Z,65.00
2023-01-19T22:38:51.056Z,64.60
2023-01-19T22:41:21.666Z,64.30
2023-01-19T22:43:49.729Z,64.30
2023-01-19T22:46:17.443Z,64.20
2023-01-19T22:48:45.042Z,64.30
2023-01-19T22:51:12.272Z,64.30
2023-01-19T22:53:39.538Z,64.10
2023-01-19T22:56:13.709Z,64.30
2023-01-19T22:58:40.908Z,64.30
2023-01-19T23:01:08.503Z,64.20
2023-01-19T23:03:36.292Z,63.90
2023-01-19T23:06:07.237Z,63.80
2023-01-19T23:08:34.777Z,63.20
2023-01-19T23:11:08.484Z,64.00
2023-01-19T23:13:35.867Z,64.30
2023-01-19T23:16:03.057Z,64.10
2023-01-19T23:18:30.175Z,64.60
2023-01-19T23:21:01.912Z,64.90
2023-01-19T23:23:28.977Z,65.10
2023-01-19T23:25:59.491Z,64.80
2023-01-19T23:28:29.663Z,64.70
2023-01-19T23:30:57.856Z,65.20
2023-01-19T23:33:26.891Z,65.10
2023-01-19T23:35:56.762Z,65.00
2023-01-19T23:38:23.732Z,65.10
2023-01-19T23:40:51.324Z,65.00
2023-01-19T23:43:27.526Z,64.60
2023-01-19T23:45:58.724Z,64.00
2023-01-19T23:48:25.827Z,64.20
2023-01-19T23:50:54.982Z,64.00
2023-01-19T23:53:22.145Z,63.50
2023-01-19T23:55:49.300Z,63.10
2023-01-19T23:58:16.360Z,62.90
